Time;durP1;ratioP1;P1;durP2;ratioP2;P2;SDS_P1;SDS_P2;PMS_P1;PMS_P2;Temp;Humidity;BMP_temperature;BMP_pressure;BME280_temperature;BME280_humidity;BME280_pressure;Samples;Min_cycle;Max_cycle;Signal;HPM_P1;HPM_P2
2022/05/15 00:02:45;;;;;;;17.13;5.70;;;;;;;12.14;72.32;102076.81;4880879;29;20046;-65
2022/05/15 00:05:10;;;;;;;16.35;5.32;;;;;;;12.13;72.63;102074.22;4879977;29;20071;-65
2022/05/15 00:07:36;;;;;;;23.33;5.53;;;;;;;12.11;72.36;102079.66;4881717;29;20936;-64
2022/05/15 00:10:04;;;;;;;30.77;6.28;;;;;;;12.05;72.23;102077.28;4879884;29;20105;-65
2022/05/15 00:12:29;;;;;;;16.75;5.72;;;;;;;11.99;72.73;102074.91;4879896;29;20052;-65
2022/05/15 00:14:55;;;;;;;17.38;6.13;;;;;;;11.94;73.27;102068.91;4880040;29;20668;-65
2022/05/15 00:17:20;;;;;;;15.98;5.38;;;;;;;11.95;72.56;102065.31;4861864;29;20041;-66
2022/05/15 00:19:46;;;;;;;16.20;5.43;;;;;;;11.98;73.08;102070.50;4862953;29;20044;-65
2022/05/15 00:22:14;;;;;;;28.92;7.07;;;;;;;11.93;73.17;102068.03;4861211;29;20049;-65
2022/05/15 00:24:40;;;;;;;19.77;5.68;;;;;;;11.73;73.51;102068.13;4860720;29;20041;-65
2022/05/15 00:27:06;;;;;;;15.50;5.85;;;;;;;11.64;73.35;102065.91;4860586;29;20048;-65
2022/05/15 00:29:33;;;;;;;21.92;6.03;;;;;;;11.65;72.84;102067.66;4862173;29;20041;-64
2022/05/15 00:31:59;;;;;;;16.10;5.18;;;;;;;11.54;73.38;102069.94;4861456;29;20048;-65
2022/05/15 00:34:25;;;;;;;9.15;4.32;;;;;;;11.22;74.16;102067.00;4878620;29;20044;-65
2022/05/15 00:36:50;;;;;;;17.35;5.22;;;;;;;11.09;74.51;102065.81;4862057;29;20046;-65
2022/05/15 00:39:17;;;;;;;14.75;6.15;;;;;;;11.04;75.02;102068.69;4878488;29;20739;-65
2022/05/15 00:41:43;;;;;;;18.13;5.72;;;;;;;11.08;75.20;102069.44;4863893;29;20100;-65
2022/05/15 00:44:09;;;;;;;21.65;5.97;;;;;;;11.06;75.22;102060.63;4846691;29;20120;-65
2022/05/15 00:46:38;;;;;;;21.33;6.80;;;;;;;10.80;76.47;102061.81;4879345;29;20036;-65
2022/05/15 00:49:07;;;;;;;17.98;6.03;;;;;;;10.81;76.26;102053.75;4862006;29;20092;-65
2022/05/15 00:51:36;;;;;;;12.68;6.03;;;;;;;10.80;76.00;102059.16;4863126;29;20064;-66
2022/05/15 00:54:18;;;;;;;19.67;6.38;;;;;;;10.92;76.13;102065.72;4878214;29;20171;-65
2022/05/15 00:56:51;;;;;;;22.70;6.78;;;;;;;10.96;76.30;102054.00;4863219;29;20806;-65
2022/05/15 00:59:21;;;;;;;16.63;5.38;;;;;;;11.04;75.61;102066.03;4878773;29;20045;-65
2022/05/15 01:01:47;;;;;;;20.70;5.75;;;;;;;11.08;76.32;102069.44;4862580;29;20044;-65
2022/05/15 01:04:12;;;;;;;21.88;7.43;;;;;;;11.16;75.67;102061.94;4894287;29;20061;-65
2022/05/15 01:06:43;;;;;;;32.85;7.22;;;;;;;11.06;76.13;102053.50;4879076;29;20040;-64
2022/05/15 01:09:10;;;;;;;18.85;6.68;;;;;;;11.03;76.43;102056.28;4920450;23;20060;-77
2022/05/15 01:11:37;;;;;;;21.30;4.93;;;;;;;10.93;76.56;102062.13;4908751;29;20052;-76
2022/05/15 01:14:05;;;;;;;19.30;5.63;;;;;;;10.84;76.83;102061.63;4893086;29;20045;-76
2022/05/15 01:16:32;;;;;;;23.70;6.18;;;;;;;10.79;77.20;102062.72;4910198;29;20036;-76
2022/05/15 01:18:59;;;;;;;28.98;7.07;;;;;;;10.78;78.13;102056.53;4909413;29;20040;-77
2022/05/15 01:21:34;;;;;;;17.98;5.68;;;;;;;10.80;76.90;102056.50;4911495;29;20152;-77
2022/05/15 01:24:01;;;;;;;17.25;5.85;;;;;;;10.73;76.38;102060.34;4911470;29;20017;-76
2022/05/15 01:26:31;;;;;;;20.70;6.45;;;;;;;10.68;77.54;102062.34;4910064;29;20072;-76
2022/05/15 01:28:58;;;;;;;14.55;6.50;;;;;;;10.74;77.36;102054.06;4908607;29;20041;-76
2022/05/15 01:31:24;;;;;;;21.50;6.72;;;;;;;10.81;77.23;102056.41;4892423;29;20036;-76
2022/05/15 01:33:51;;;;;;;29.83;7.22;;;;;;;10.71;77.46;102052.41;4907683;29;20054;-76
2022/05/15 01:36:20;;;;;;;20.92;6.53;;;;;;;10.81;77.56;102056.41;4909012;29;20063;-76
2022/05/15 01:38:47;;;;;;;18.85;6.32;;;;;;;10.58;78.25;102052.06;4906736;29;20040;-76
2022/05/15 01:41:14;;;;;;;20.33;6.95;;;;;;;10.49;78.78;102055.19;4906748;29;20108;-76
2022/05/15 01:43:43;;;;;;;25.75;7.72;;;;;;;10.50;78.80;102056.03;4908043;29;20024;-76
2022/05/15 01:46:09;;;;;;;19.08;6.90;;;;;;;10.41;79.61;102051.09;4894318;29;20120;-76
2022/05/15 01:48:36;;;;;;;24.92;7.10;;;;;;;10.48;79.29;102048.09;4889282;29;20053;-76
2022/05/15 01:51:03;;;;;;;21.27;6.93;;;;;;;10.42;79.21;102050.16;4904064;29;20053;-76
2022/05/15 01:53:29;;;;;;;18.30;6.78;;;;;;;10.39;79.22;102045.81;4888240;29;20049;-76
2022/05/15 01:55:54;;;;;;;20.40;7.10;;;;;;;10.37;79.66;102059.22;4888114;29;20045;-76
2022/05/15 01:58:21;;;;;;;23.88;7.55;;;;;;;10.44;79.14;102054.50;4905181;29;20045;-76
2022/05/15 02:00:47;;;;;;;15.20;5.70;;;;;;;10.33;79.31;102052.28;4889911;29;20105;-76
2022/05/15 02:03:14;;;;;;;21.77;7.05;;;;;;;10.35;79.55;102053.09;4904485;29;20056;-75
2022/05/15 02:05:39;;;;;;;20.60;6.60;;;;;;;10.29;79.66;102052.47;4904902;29;20043;-76
2022/05/15 02:08:05;;;;;;;21.55;6.35;;;;;;;10.25;79.71;102045.56;4888674;29;20112;-76
2022/05/15 02:10:31;;;;;;;22.27;6.60;;;;;;;10.24;79.52;102046.47;4892036;29;20032;-76
2022/05/15 02:12:56;;;;;;;16.63;6.05;;;;;;;10.26;79.90;102047.28;4906143;29;20108;-76
2022/05/15 02:15:22;;;;;;;22.42;7.50;;;;;;;10.11;80.30;102052.31;4906596;29;20044;-75
2022/05/15 02:17:48;;;;;;;19.13;7.05;;;;;;;10.12;80.52;102037.19;4907640;29;20040;-76
2022/05/15 02:20:14;;;;;;;21.88;7.35;;;;;;;10.09;80.52;102039.94;4891339;29;20155;-75
2022/05/15 02:22:41;;;;;;;25.58;7.28;;;;;;;10.05;80.52;102041.91;4892589;29;20045;-76
2022/05/15 02:25:09;;;;;;;24.27;6.75;;;;;;;10.11;80.45;102038.09;4909646;29;20236;-76
2022/05/15 02:27:40;;;;;;;20.20;6.55;;;;;;;10.02;80.92;102039.34;4896486;29;20040;-76
2022/05/15 02:30:08;;;;;;;28.30;8.57;;;;;;;10.05;80.69;102033.91;4890457;29;20055;-76
2022/05/15 02:32:34;;;;;;;21.70;6.88;;;;;;;10.02;81.19;102038.50;4892596;29;20482;-76
2022/05/15 02:35:00;;;;;;;31.58;7.93;;;;;;;9.99;81.45;102031.50;4891026;29;20033;-77
2022/05/15 02:37:26;;;;;;;20.30;7.40;;;;;;;9.88;81.52;102032.88;4890115;29;20055;-76
2022/05/15 02:39:52;;;;;;;24.17;8.43;;;;;;;9.94;81.81;102025.50;4890380;29;20029;-76
2022/05/15 02:42:20;;;;;;;17.02;6.63;;;;;;;9.86;81.67;102027.59;4891005;29;20059;-76
2022/05/15 02:44:46;;;;;;;18.30;6.93;;;;;;;9.82;81.74;102028.66;4891082;29;20064;-75
2022/05/15 02:47:11;;;;;;;19.58;6.45;;;;;;;9.85;81.54;102028.53;4889872;29;20051;-76
2022/05/15 02:52:21;;;;;;;20.77;6.95;;;;;;;9.77;81.88;102030.66;4890015;29;20041;-76
2022/05/15 02:54:46;;;;;;;27.08;6.97;;;;;;;9.80;81.65;102038.53;4889688;29;20072;-75
2022/05/15 02:57:12;;;;;;;24.42;6.82;;;;;;;9.83;81.48;102038.38;4889485;29;20371;-76
2022/05/15 02:59:39;;;;;;;25.08;6.78;;;;;;;9.84;81.19;102037.47;4892227;29;20025;-76
2022/05/15 03:02:05;;;;;;;27.98;7.70;;;;;;;9.85;81.50;102037.41;4894470;29;20073;-76
2022/05/15 03:04:32;;;;;;;29.80;7.13;;;;;;;9.84;81.72;102037.47;4895937;29;20033;-76
2022/05/15 03:06:58;;;;;;;24.75;6.88;;;;;;;9.92;80.98;102023.81;4894496;29;20052;-77
2022/05/15 03:09:24;;;;;;;19.15;7.47;;;;;;;9.83;81.94;102036.56;4897913;29;20048;-76
2022/05/15 03:11:49;;;;;;;23.27;7.30;;;;;;;9.90;80.89;102026.56;4895632;29;20351;-77
2022/05/15 03:14:15;;;;;;;17.50;7.43;;;;;;;9.86;80.71;102025.81;4916611;29;20044;-76
2022/05/15 03:16:40;;;;;;;26.73;7.53;;;;;;;9.86;80.63;102027.59;4916920;29;20036;-75
2022/05/15 03:19:06;;;;;;;18.00;7.32;;;;;;;9.73;81.08;102029.03;4916625;29;20016;-76
2022/05/15 03:21:32;;;;;;;22.45;6.97;;;;;;;9.72;81.21;102030.81;4916467;29;20055;-76
2022/05/15 03:24:06;;;;;;;18.80;6.93;;;;;;;9.56;80.90;102022.59;4916911;29;20048;-76
2022/05/15 03:26:38;;;;;;;23.75;6.43;;;;;;;9.53;80.13;102025.38;4933508;29;20051;-76
2022/05/15 03:29:05;;;;;;;25.58;7.97;;;;;;;9.52;80.75;102026.31;4915872;29;20064;-75
2022/05/15 03:31:32;;;;;;;16.65;5.63;;;;;;;9.31;80.51;102030.69;4916741;29;20040;-76
2022/05/15 03:33:57;;;;;;;13.23;4.78;;;;;;;9.25;80.34;102033.59;4917712;29;20856;-76
2022/05/15 03:36:23;;;;;;;18.08;6.15;;;;;;;9.37;80.19;102028.72;4916349;29;20028;-76
2022/05/15 03:38:52;;;;;;;18.23;6.03;;;;;;;9.40;80.29;102026.81;4932529;29;20020;-75
2022/05/15 03:41:18;;;;;;;19.30;6.70;;;;;;;9.33;80.95;102028.81;4933905;29;20109;-76
2022/05/15 03:43:44;;;;;;;23.60;6.97;;;;;;;9.31;82.18;102020.03;4916718;29;20036;-76
2022/05/15 03:46:09;;;;;;;25.40;6.97;;;;;;;9.39;82.49;102026.84;4932168;29;20044;-76
2022/05/15 03:48:35;;;;;;;26.67;7.15;;;;;;;9.34;82.48;102019.06;4931687;29;20051;-77
2022/05/15 03:51:03;;;;;;;21.50;6.80;;;;;;;9.26;82.55;102010.50;4914797;29;20123;-75
2022/05/15 03:53:29;;;;;;;21.90;7.55;;;;;;;9.27;82.63;102005.13;4915144;29;20108;-75
2022/05/15 03:55:58;;;;;;;20.40;6.18;;;;;;;9.24;82.53;102015.03;4916609;29;20111;-76
2022/05/15 03:58:30;;;;;;;20.98;6.80;;;;;;;9.28;82.67;102014.81;4934632;29;20474;-76
2022/05/15 04:00:55;;;;;;;21.83;7.25;;;;;;;9.38;82.54;102009.16;4918692;29;20040;-75
2022/05/15 04:03:21;;;;;;;22.75;6.97;;;;;;;9.47;82.56;102011.44;4918794;29;20039;-75
2022/05/15 04:05:47;;;;;;;30.02;7.32;;;;;;;9.53;82.54;102014.72;4935577;29;20100;-76
2022/05/15 04:08:12;;;;;;;29.90;7.88;;;;;;;9.58;82.26;102014.53;4902153;29;20055;-76
2022/05/15 04:10:38;;;;;;;26.80;8.13;;;;;;;9.67;82.17;102010.66;4934433;29;20087;-76
2022/05/15 04:13:04;;;;;;;29.88;7.97;;;;;;;9.70;81.80;102019.38;4933618;29;20047;-76
2022/05/15 04:15:31;;;;;;;18.38;7.07;;;;;;;9.91;81.30;102004.31;4918395;29;20126;-76
2022/05/15 04:17:56;;;;;;;21.58;8.27;;;;;;;10.03;80.54;101994.91;4934793;29;20043;-76
2022/05/15 04:20:28;;;;;;;23.35;7.05;;;;;;;10.10;80.37;101994.59;4917969;29;20032;-76
2022/05/15 04:22:55;;;;;;;22.30;7.72;;;;;;;10.12;80.26;102003.38;4918235;29;20055;-76
2022/05/15 04:25:21;;;;;;;20.83;6.80;;;;;;;10.23;80.12;102002.91;4918328;29;20028;-76
2022/05/15 04:27:47;;;;;;;22.58;8.32;;;;;;;10.31;80.00;101998.16;4934003;29;20209;-77
2022/05/15 04:30:18;;;;;;;17.13;6.85;;;;;;;10.46;79.59;102009.09;4933959;29;20036;-76
2022/05/15 04:32:44;;;;;;;20.17;7.40;;;;;;;10.27;79.86;102004.56;4933413;29;20048;-76
2022/05/15 04:35:11;;;;;;;17.23;7.18;;;;;;;10.33;79.44;102001.63;4916340;29;20038;-76
2022/05/15 04:37:39;;;;;;;20.98;6.95;;;;;;;10.20;79.83;102011.06;4932932;29;20386;-75
2022/05/15 04:40:06;;;;;;;15.27;6.35;;;;;;;10.38;78.21;102012.09;4933280;29;20032;-76
2022/05/15 04:42:31;;;;;;;23.52;7.07;;;;;;;10.24;79.55;102012.72;4933411;29;20059;-76
2022/05/15 04:44:56;;;;;;;17.65;6.13;;;;;;;10.65;78.08;102014.50;4915501;29;20040;-77
2022/05/15 04:47:22;;;;;;;25.05;6.95;;;;;;;12.06;73.76;102005.97;4931464;29;20079;-76
2022/05/15 04:49:49;;;;;;;28.83;7.63;;;;;;;13.43;68.69;102008.41;4931137;29;20036;-76
2022/05/15 04:52:15;;;;;;;21.02;6.95;;;;;;;14.06;66.15;102002.09;4931275;29;20036;-76
2022/05/15 04:54:40;;;;;;;15.20;6.25;;;;;;;15.16;63.06;102003.34;4899777;29;20046;-76
2022/05/15 04:57:06;;;;;;;23.48;7.32;;;;;;;15.23;61.75;102000.19;4932196;29;20048;-76
2022/05/15 04:59:31;;;;;;;14.20;5.15;;;;;;;15.98;59.99;102006.00;4933039;29;20048;-76
2022/05/15 05:01:58;;;;;;;20.08;6.03;;;;;;;15.80;60.77;101997.34;4932120;29;20048;-76
2022/05/15 05:04:24;;;;;;;19.70;6.18;;;;;;;16.11;59.82;101997.97;4933279;29;20611;-77
2022/05/15 05:06:50;;;;;;;14.13;5.00;;;;;;;15.85;59.91;101999.72;4932424;29;20028;-78
2022/05/15 05:09:15;;;;;;;21.95;6.47;;;;;;;15.85;60.15;102001.56;4932185;29;20036;-76
2022/05/15 05:11:41;;;;;;;13.57;5.47;;;;;;;16.39;59.03;101993.38;4930563;29;20072;-76
2022/05/15 05:14:07;;;;;;;16.48;6.50;;;;;;;16.38;58.88;102008.69;4930596;29;20842;-77
2022/05/15 05:16:33;;;;;;;14.25;5.35;;;;;;;16.00;59.70;102020.22;4908798;29;20036;-78
2022/05/15 05:18:59;;;;;;;21.00;6.20;;;;;;;15.95;60.46;102022.34;4913784;29;20047;-77
2022/05/15 05:21:25;;;;;;;12.65;5.65;;;;;;;15.21;62.40;102029.00;4928389;29;20032;-77
2022/05/15 05:23:50;;;;;;;20.55;6.20;;;;;;;15.18;62.81;102025.63;4949286;29;20051;-77
2022/05/15 05:26:16;;;;;;;17.13;5.97;;;;;;;15.25;63.17;102022.44;4948474;29;20019;-78
2022/05/15 05:28:41;;;;;;;24.38;5.70;;;;;;;15.07;63.26;102020.06;4911480;29;20052;-77
2022/05/15 05:31:07;;;;;;;12.80;5.45;;;;;;;15.59;61.81;102022.09;4918991;29;20040;-77
2022/05/15 05:33:32;;;;;;;9.75;4.72;;;;;;;15.91;61.07;102026.22;4931325;29;20059;-77
2022/05/15 05:35:58;;;;;;;16.65;6.22;;;;;;;16.10;60.88;102019.59;4947599;29;20205;-76
2022/05/15 05:38:23;;;;;;;17.60;5.85;;;;;;;16.31;59.96;102026.19;4929966;29;20054;-75
2022/05/15 05:40:49;;;;;;;17.60;6.05;;;;;;;16.51;60.13;102024.81;4946624;29;20068;-75
2022/05/15 05:43:15;;;;;;;20.50;6.40;;;;;;;15.99;61.41;102028.41;4945733;29;20051;-76
2022/05/15 05:45:40;;;;;;;18.30;5.43;;;;;;;16.24;60.67;102033.84;4947923;29;20050;-75
2022/05/15 05:48:06;;;;;;;12.73;5.28;;;;;;;16.52;60.64;102038.22;4947197;29;20043;-76
2022/05/15 05:50:32;;;;;;;19.33;6.13;;;;;;;16.97;58.88;102029.72;4930183;29;20056;-75
2022/05/15 05:52:58;;;;;;;17.08;5.72;;;;;;;16.71;59.62;102031.50;4928235;29;20039;-76
2022/05/15 05:55:25;;;;;;;16.83;4.97;;;;;;;16.72;58.93;102033.28;4932323;29;20044;-75
2022/05/15 05:57:51;;;;;;;15.73;5.47;;;;;;;16.23;59.90;102032.13;4930922;29;20064;-75
2022/05/15 06:00:23;;;;;;;15.73;5.97;;;;;;;16.22;60.69;102035.78;4928930;29;20056;-76
2022/05/15 06:02:49;;;;;;;13.00;5.75;;;;;;;16.95;59.69;102034.34;4935087;29;20024;-77
2022/05/15 06:05:14;;;;;;;9.75;5.65;;;;;;;16.79;58.89;102032.75;4951209;29;20423;-75
2022/05/15 06:07:40;;;;;;;12.05;5.40;;;;;;;17.19;58.47;102037.13;4951325;29;20058;-75
2022/05/15 06:10:08;;;;;;;13.18;5.47;;;;;;;17.49;57.71;102031.34;4950159;29;20048;-75
2022/05/15 06:12:33;;;;;;;14.02;4.88;;;;;;;17.79;57.08;102041.72;4917267;29;20072;-75
2022/05/15 06:14:59;;;;;;;10.23;5.18;;;;;;;17.02;59.11;102033.81;4946994;29;20040;-76
2022/05/15 06:17:28;;;;;;;12.02;5.00;;;;;;;17.24;58.73;102021.47;4933377;29;20056;-75
2022/05/15 06:19:55;;;;;;;13.68;5.32;;;;;;;18.03;57.17;102020.97;4905275;29;20028;-76
2022/05/15 06:22:20;;;;;;;15.75;5.60;;;;;;;17.99;57.29;102016.78;4926291;29;20111;-75
2022/05/15 06:24:46;;;;;;;15.05;5.75;;;;;;;17.78;57.82;102021.97;4891735;29;20048;-75
2022/05/15 06:27:11;;;;;;;12.00;5.20;;;;;;;18.17;57.09;102025.31;4928545;29;20068;-76
2022/05/15 06:29:38;;;;;;;15.48;6.28;;;;;;;17.94;57.12;102023.50;4925383;29;20039;-75
2022/05/15 06:32:05;;;;;;;14.38;5.43;;;;;;;17.99;58.15;102016.78;4903390;29;20032;-76
2022/05/15 06:34:30;;;;;;;13.68;5.00;;;;;;;17.90;56.09;102013.94;4928673;29;19990;-75
2022/05/15 06:36:56;;;;;;;18.67;6.03;;;;;;;17.76;57.16;102023.91;4925825;29;20052;-76
2022/05/15 06:39:21;;;;;;;13.63;5.53;;;;;;;17.99;56.17;102018.63;4925598;29;20044;-75
2022/05/15 06:41:50;;;;;;;13.73;5.75;;;;;;;18.33;56.55;102009.66;4925124;29;20332;-75
2022/05/15 06:44:17;;;;;;;15.55;5.45;;;;;;;18.87;55.24;102013.56;4923009;29;20043;-75
2022/05/15 06:46:43;;;;;;;14.38;5.82;;;;;;;18.47;56.74;102010.41;4921924;29;20056;-75
2022/05/15 06:49:09;;;;;;;13.32;5.78;;;;;;;18.71;56.20;102007.66;4920164;29;20426;-75
2022/05/15 06:51:34;;;;;;;16.27;6.50;;;;;;;18.79;56.11;102005.22;4921134;29;20040;-75
2022/05/15 06:54:00;;;;;;;18.98;5.85;;;;;;;18.17;57.26;102001.00;4922827;29;20927;-75
2022/05/15 06:59:10;;;;;;;17.15;7.35;;;;;;;18.81;55.60;102011.34;4906880;29;20040;-74
2022/05/15 07:01:35;;;;;;;11.85;5.97;;;;;;;18.92;54.71;102010.50;4933709;29;20105;-76
2022/05/15 07:04:00;;;;;;;17.70;5.65;;;;;;;19.07;56.83;102014.66;4932248;29;20032;-75
2022/05/15 07:06:27;;;;;;;15.77;5.88;;;;;;;18.91;55.23;102011.50;4929374;29;20103;-75
2022/05/15 07:08:52;;;;;;;15.27;5.80;;;;;;;19.58;53.30;102004.16;4925745;29;20138;-75
2022/05/15 07:11:18;;;;;;;14.90;5.72;;;;;;;18.95;54.42;102004.84;4928089;29;20084;-75
2022/05/15 07:13:43;;;;;;;16.05;5.88;;;;;;;19.22;54.38;102009.88;4909554;29;20048;-74
2022/05/15 07:16:10;;;;;;;12.32;6.22;;;;;;;20.03;52.48;102012.16;4926689;29;20059;-75
2022/05/15 07:18:36;;;;;;;13.73;6.05;;;;;;;20.60;50.76;102010.00;4925368;29;20024;-76
2022/05/15 07:21:03;;;;;;;19.73;6.28;;;;;;;20.43;49.80;102016.84;4929201;29;20109;-75
2022/05/15 07:23:29;;;;;;;15.88;6.10;;;;;;;20.47;52.15;102009.34;4926724;29;20040;-76
2022/05/15 07:25:55;;;;;;;16.50;5.95;;;;;;;20.19;51.71;102006.28;4927030;29;20115;-75
2022/05/15 07:28:21;;;;;;;15.20;5.63;;;;;;;20.82;49.43;102006.25;4925682;29;20034;-76
2022/05/15 07:30:48;;;;;;;13.38;6.28;;;;;;;21.14;48.05;102009.69;4909542;29;20384;-76
2022/05/15 07:33:17;;;;;;;10.82;5.63;;;;;;;21.35;47.94;101997.94;4926618;29;20059;-76
2022/05/15 07:35:43;;;;;;;11.77;6.22;;;;;;;20.95;48.09;102007.75;4928973;29;20032;-74
2022/05/15 07:38:08;;;;;;;16.60;6.22;;;;;;;21.13;48.46;102005.25;4947916;29;20055;-75
2022/05/15 07:40:33;;;;;;;11.80;5.22;;;;;;;21.55;47.12;101998.81;4916778;29;20051;-75
2022/05/15 07:43:03;;;;;;;13.55;5.72;;;;;;;20.93;48.73;101998.91;4949678;28;20034;-75
2022/05/15 07:45:29;;;;;;;12.38;5.50;;;;;;;21.43;49.35;102003.50;4950201;28;20024;-77
2022/05/15 07:47:54;;;;;;;13.82;6.65;;;;;;;21.72;48.43;101998.97;4944820;29;20044;-74
2022/05/15 07:50:20;;;;;;;20.33;7.25;;;;;;;21.69;48.03;102006.56;4934016;29;20070;-76
2022/05/15 07:52:47;;;;;;;15.70;5.57;;;;;;;22.17;46.79;102000.31;4918104;29;20056;-75
2022/05/15 07:55:14;;;;;;;10.80;5.75;;;;;;;21.67;48.89;102005.84;4934821;29;20115;-77
2022/05/15 07:57:39;;;;;;;14.18;5.70;;;;;;;21.05;48.81;102002.38;4886657;29;20044;-75
2022/05/15 08:00:08;;;;;;;13.30;5.75;;;;;;;21.10;48.71;102000.09;4917018;29;20071;-75
2022/05/15 08:02:38;;;;;;;12.15;5.90;;;;;;;21.78;48.19;101999.41;4932420;29;20063;-75
2022/05/15 08:08:03;;;;;;;10.68;5.97;;;;;;;22.01;46.92;101992.69;4919925;29;20342;-75
2022/05/15 08:10:39;;;;;;;10.82;5.72;;;;;;;22.63;48.09;101985.03;4926880;29;20032;-76
2022/05/15 08:13:05;;;;;;;17.25;6.30;;;;;;;22.19;48.85;101985.59;4902141;29;20056;-75
2022/05/15 08:15:32;;;;;;;13.65;6.05;;;;;;;22.06;46.58;101981.41;4914742;29;20044;-75
2022/05/15 08:23:33;;;;;;;17.77;6.10;;;;;;;21.25;50.98;101986.16;4922159;29;20041;-76
2022/05/15 08:23:33;;;;;;;16.05;5.70;;;;;;;21.27;49.65;101985.00;4931778;29;20043;-75
2022/05/15 08:25:59;;;;;;;14.15;6.40;;;;;;;21.80;48.60;101973.84;4908578;29;20044;-75
2022/05/15 08:28:24;;;;;;;14.98;6.78;;;;;;;22.49;48.50;101983.63;4915903;29;20095;-75
2022/05/15 08:30:49;;;;;;;14.07;6.32;;;;;;;21.71;47.65;101986.41;4916681;29;20034;-75
2022/05/15 08:33:15;;;;;;;13.38;5.72;;;;;;;22.37;50.79;101985.69;4935725;28;20055;-75
2022/05/15 08:35:41;;;;;;;13.23;6.35;;;;;;;22.69;48.05;101979.88;4953547;28;20042;-75
2022/05/15 08:38:06;;;;;;;9.73;5.35;;;;;;;22.93;47.26;101986.66;4932246;29;20020;-75
2022/05/15 08:40:55;;;;;;;10.52;5.32;;;;;;;22.28;46.25;101985.69;4926593;29;20028;-75
2022/05/15 08:43:27;;;;;;;16.02;6.57;;;;;;;21.67;49.29;101984.97;4933841;29;20040;-75
2022/05/15 08:46:03;;;;;;;15.90;5.95;;;;;;;22.37;49.14;101972.09;4934132;29;20044;-75
2022/05/15 08:48:34;;;;;;;12.07;5.30;;;;;;;22.22;49.54;101971.69;4933294;29;20123;-75
2022/05/15 08:51:02;;;;;;;18.17;7.27;;;;;;;23.33;48.73;101980.03;4933703;29;20399;-75
2022/05/15 08:53:34;;;;;;;11.95;5.57;;;;;;;22.22;48.18;101976.25;4928509;29;20056;-75
2022/05/15 08:56:06;;;;;;;12.15;5.88;;;;;;;21.82;50.70;101979.97;4934167;29;20058;-76
2022/05/15 08:58:54;;;;;;;11.32;6.05;;;;;;;22.64;45.62;101976.75;4926878;29;20032;-76
2022/05/15 09:01:23;;;;;;;12.68;5.97;;;;;;;22.37;48.49;101963.94;4928845;29;20020;-75
2022/05/15 09:03:49;;;;;;;11.25;5.68;;;;;;;22.62;46.18;101967.88;4909886;29;20032;-75
2022/05/15 09:06:39;;;;;;;15.52;5.63;;;;;;;22.78;46.17;101960.94;4934153;29;20104;-75
2022/05/15 09:09:34;;;;;;;16.83;6.03;;;;;;;22.01;48.00;101968.25;4920352;29;20083;-77
2022/05/15 09:12:10;;;;;;;10.93;5.55;;;;;;;22.23;48.91;101962.53;4910496;29;20044;-76
2022/05/15 09:14:58;;;;;;;16.80;6.10;;;;;;;22.38;48.47;101956.63;4918610;29;20062;-77
2022/05/15 09:17:58;;;;;;;13.30;6.20;;;;;;;22.82;44.83;101946.88;4915573;29;20020;-76
2022/05/15 09:20:23;;;;;;;15.93;5.18;;;;;;;23.07;46.20;101952.69;4909361;29;20070;-76
2022/05/15 09:23:23;;;;;;;13.68;5.28;;;;;;;23.45;42.75;101954.31;4910376;29;20052;-76
2022/05/15 09:25:58;;;;;;;13.00;4.72;;;;;;;23.10;41.83;101950.50;4907363;29;20043;-77
2022/05/15 09:28:27;;;;;;;15.15;4.97;;;;;;;23.07;41.79;101949.94;4909078;29;20091;-76
2022/05/15 09:30:58;;;;;;;9.73;4.90;;;;;;;22.97;45.80;101955.44;4922956;29;20039;-77
2022/05/15 09:33:24;;;;;;;14.05;4.40;;;;;;;23.15;41.56;101936.47;4945547;29;20100;-77
2022/05/15 09:35:50;;;;;;;16.77;4.60;;;;;;;23.47;42.33;101947.69;4928565;29;20047;-77
2022/05/15 09:38:27;;;;;;;12.32;4.03;;;;;;;22.58;40.02;101947.41;4931144;29;20123;-77
2022/05/15 09:43:51;;;;;;;15.15;4.38;;;;;;;22.80;40.43;101954.34;4930452;29;20032;-78
2022/05/15 09:46:20;;;;;;;14.32;4.60;;;;;;;23.02;40.83;101949.56;4928910;29;20369;-75
2022/05/15 09:48:56;;;;;;;7.72;3.15;;;;;;;23.25;40.69;101943.53;4910484;29;20056;-76
2022/05/15 09:51:28;;;;;;;10.65;3.72;;;;;;;23.40;38.32;101929.41;4902075;29;20067;-75
2022/05/15 09:53:57;;;;;;;8.25;3.40;;;;;;;23.39;39.77;101933.97;4923701;29;20043;-76
2022/05/15 09:56:29;;;;;;;11.57;3.72;;;;;;;22.99;38.79;101937.97;4926846;29;20051;-75
2022/05/15 09:59:15;;;;;;;9.07;3.40;;;;;;;23.03;38.77;101934.94;4922308;29;20044;-75
2022/05/15 10:01:49;;;;;;;7.55;3.40;;;;;;;23.64;39.64;101916.03;4888156;29;20093;-76
2022/05/15 10:04:24;;;;;;;8.38;3.20;;;;;;;23.44;41.88;101926.19;4895220;29;20040;-76
2022/05/15 10:06:53;;;;;;;8.23;3.25;;;;;;;23.57;39.58;101923.09;4907591;29;20219;-76
2022/05/15 10:09:32;;;;;;;7.13;3.35;;;;;;;23.57;39.50;101920.38;4919043;29;20044;-75
2022/05/15 10:12:07;;;;;;;11.40;3.88;;;;;;;23.65;40.14;101906.03;4892026;29;20041;-76
2022/05/15 10:14:47;;;;;;;8.85;3.53;;;;;;;23.48;40.03;101905.81;4905469;29;20036;-76
2022/05/15 10:17:15;;;;;;;9.82;3.80;;;;;;;23.70;39.86;101906.41;4908563;29;20044;-75
2022/05/15 10:19:52;;;;;;;8.27;3.47;;;;;;;23.55;37.85;101899.78;4898356;29;20048;-75
2022/05/15 10:22:56;;;;;;;11.77;3.50;;;;;;;23.44;43.22;101904.41;4893975;29;20092;-76
2022/05/15 10:25:27;;;;;;;7.13;3.67;;;;;;;23.89;39.48;101897.19;4882603;29;20061;-75
2022/05/15 10:28:20;;;;;;;7.00;2.78;;;;;;;24.40;37.58;101888.19;4877692;29;20041;-76
2022/05/15 10:30:52;;;;;;;9.82;3.53;;;;;;;24.70;38.04;101891.38;4875629;29;20048;-75
2022/05/15 10:33:19;;;;;;;7.10;3.17;;;;;;;24.13;37.14;101894.63;4901485;29;20533;-75
2022/05/15 10:36:11;;;;;;;11.48;3.90;;;;;;;24.29;37.55;101882.97;4903024;29;20044;-75
2022/05/15 10:39:06;;;;;;;4.25;3.20;;;;;;;24.39;37.58;101888.34;4899093;29;20060;-76
2022/05/15 10:41:41;;;;;;;6.10;3.25;;;;;;;24.20;35.81;101873.91;4897569;29;20055;-75
2022/05/15 10:44:22;;;;;;;7.00;3.03;;;;;;;24.13;36.10;101877.44;4888427;29;20458;-75
2022/05/15 10:46:52;;;;;;;9.25;3.17;;;;;;;24.23;32.77;101873.56;4903748;29;20047;-75
2022/05/15 10:49:43;;;;;;;10.73;3.13;;;;;;;24.17;37.73;101879.66;4907749;29;20759;-75
2022/05/15 10:52:23;;;;;;;7.47;3.40;;;;;;;24.19;39.46;101872.19;4907740;29;20107;-75
2022/05/15 10:58:11;;;;;;;6.60;2.72;;;;;;;24.07;35.31;101873.47;4892102;29;20058;-75
2022/05/15 11:00:48;;;;;;;8.73;3.10;;;;;;;24.41;36.32;101879.00;4908242;29;20083;-75
2022/05/15 11:03:36;;;;;;;12.85;4.38;;;;;;;24.28;35.95;101876.66;4891418;29;20052;-75
2022/05/15 11:06:33;;;;;;;7.10;3.20;;;;;;;24.29;35.31;101874.78;4906427;29;20101;-76
2022/05/15 11:09:08;;;;;;;9.05;2.60;;;;;;;24.20;34.56;101870.34;4940759;29;20806;-77
2022/05/15 11:11:52;;;;;;;4.15;2.10;;;;;;;24.45;34.62;101869.47;4921219;29;20024;-77
2022/05/15 11:14:42;;;;;;;7.00;2.65;;;;;;;24.45;32.68;101854.97;4935309;29;20035;-76
2022/05/15 11:17:17;;;;;;;11.85;3.28;;;;;;;24.33;35.92;101862.56;4944442;29;20031;-76
2022/05/15 11:19:46;;;;;;;8.13;3.05;;;;;;;24.28;33.87;101854.00;4905756;29;20051;-75
2022/05/15 11:22:21;;;;;;;8.27;2.35;;;;;;;24.86;35.58;101856.00;4902698;29;20122;-76
2022/05/15 11:24:55;;;;;;;5.68;2.33;;;;;;;25.10;32.27;101855.22;4922163;29;20050;-75
2022/05/15 11:27:29;;;;;;;4.93;2.08;;;;;;;24.97;33.31;101842.03;4911421;29;20059;-76
2022/05/15 11:29:56;;;;;;;5.18;2.30;;;;;;;24.66;33.34;101849.09;4905545;29;20036;-76
2022/05/15 11:32:34;;;;;;;2.88;2.60;;;;;;;24.91;36.12;101837.25;4924667;29;21111;-75
2022/05/15 11:35:10;;;;;;;7.65;2.50;;;;;;;24.31;30.85;101833.75;4906103;29;20047;-74
2022/05/15 11:37:39;;;;;;;6.10;2.33;;;;;;;24.65;30.99;101831.88;4916543;29;20108;-76
2022/05/15 11:40:30;;;;;;;6.50;1.85;;;;;;;24.99;31.99;101830.94;4905142;29;20055;-75
2022/05/15 11:42:55;;;;;;;7.03;2.28;;;;;;;24.53;29.87;101844.09;4897674;29;20039;-75
2022/05/15 11:45:27;;;;;;;8.95;2.28;;;;;;;24.59;30.80;101834.41;4914433;29;20479;-76
2022/05/15 11:47:58;;;;;;;3.42;1.88;;;;;;;24.29;31.42;101823.84;4930802;29;20043;-75